createdAt,value
2017-11-01T00:01:45.984Z,14.30
2017-11-01T00:04:12.399Z,12.77
2017-11-01T00:06:38.978Z,8.40
2017-11-01T00:09:05.458Z,13.80
2017-11-01T00:11:31.846Z,7.23
2017-11-01T00:13:58.481Z,14.47
2017-11-01T00:16:25.109Z,15.93
2017-11-01T00:18:51.501Z,6.53
2017-11-01T00:21:17.846Z,14.43
2017-11-01T00:23:44.286Z,8.47
2017-11-01T00:26:10.657Z,7.10
2017-11-01T00:28:37.293Z,8.37
2017-11-01T00:31:03.911Z,9.90
2017-11-01T00:33:30.303Z,13.70
2017-11-01T00:35:56.744Z,8.20
2017-11-01T00:38:23.186Z,7.10
2017-11-01T00:40:49.627Z,17.23
2017-11-01T00:43:16.068Z,15.47
2017-11-01T00:45:42.732Z,7.83
2017-11-01T00:48:09.381Z,7.67
2017-11-01T00:50:35.892Z,14.03
2017-11-01T00:53:02.386Z,5.07
2017-11-01T00:55:28.852Z,10.33
2017-11-01T00:57:55.308Z,7.53
2017-11-01T01:00:21.946Z,11.83
2017-11-01T01:02:48.382Z,9.23
2017-11-01T01:05:14.999Z,20.27
2017-11-01T01:07:41.636Z,8.57
2017-11-01T01:10:08.054Z,7.80
2017-11-01T01:12:34.470Z,4.93
2017-11-01T01:15:00.957Z,4.60
2017-11-01T01:17:27.597Z,8.83
2017-11-01T01:19:54.218Z,9.57
2017-11-01T01:22:20.871Z,5.47
2017-11-01T01:24:47.378Z,5.13
2017-11-01T01:27:13.739Z,12.27
2017-11-01T01:29:40.376Z,8.83
2017-11-01T01:32:06.879Z,11.13
2017-11-01T01:34:33.294Z,5.77
2017-11-01T01:36:59.736Z,8.07
2017-11-01T01:39:26.177Z,6.20
2017-11-01T01:41:52.426Z,8.33
2017-11-01T01:44:18.693Z,11.33
2017-11-01T01:46:44.927Z,10.17
2017-11-01T01:49:11.157Z,12.60
2017-11-01T01:51:37.445Z,11.98
2017-11-01T01:54:03.953Z,10.23
2017-11-01T01:56:30.394Z,9.80
2017-11-01T01:58:56.935Z,8.50
2017-11-01T02:01:23.376Z,18.40
2017-11-01T02:03:49.818Z,12.10
2017-11-01T02:06:16.468Z,7.70
2017-11-01T02:08:43.078Z,9.10
2017-11-01T02:11:09.497Z,18.73
2017-11-01T02:13:36.178Z,11.43
2017-11-01T02:16:02.818Z,16.13
2017-11-01T02:18:29.319Z,16.33
2017-11-01T02:20:55.837Z,7.50
2017-11-01T02:23:22.146Z,12.63
2017-11-01T02:25:48.754Z,10.50
2017-11-01T02:28:15.387Z,11.53
2017-11-01T02:30:42.032Z,11.37
2017-11-01T02:33:08.278Z,7.10
2017-11-01T02:35:34.896Z,17.37
2017-11-01T02:38:01.131Z,10.57
2017-11-01T02:40:27.769Z,10.33
2017-11-01T02:42:54.198Z,21.37
2017-11-01T02:45:20.630Z,10.53
2017-11-01T02:47:47.246Z,21.60
2017-11-01T02:50:13.908Z,15.30
2017-11-01T02:52:40.403Z,9.80
2017-11-01T02:55:06.845Z,14.20
2017-11-01T02:57:33.263Z,17.43
2017-11-01T02:59:59.705Z,10.23
2017-11-01T03:02:26.144Z,7.30
2017-11-01T03:04:52.663Z,7.77
2017-11-01T03:07:19.101Z,7.27
2017-11-01T03:09:45.445Z,10.83
2017-11-01T03:12:11.963Z,10.37
2017-11-01T03:14:38.304Z,14.67
2017-11-01T03:17:04.748Z,7.37
2017-11-01T03:19:31.010Z,9.07
2017-11-01T03:21:57.230Z,11.93
2017-11-01T03:24:23.463Z,9.63
2017-11-01T03:26:49.726Z,8.20
2017-11-01T03:29:15.959Z,20.73
2017-11-01T03:31:42.192Z,7.33
2017-11-01T03:34:08.486Z,18.80
2017-11-01T03:36:34.708Z,12.73
2017-11-01T03:39:00.938Z,7.80
2017-11-01T03:41:27.193Z,5.10
2017-11-01T03:43:53.432Z,9.97
2017-11-01T03:46:19.652Z,5.20
2017-11-01T03:48:46.113Z,9.57
2017-11-01T03:51:12.554Z,10.27
2017-11-01T03:53:38.969Z,19.27
2017-11-01T03:56:05.411Z,11.50
2017-11-01T03:58:31.998Z,10.90
2017-11-01T04:00:58.258Z,8.10
2017-11-01T04:03:24.551Z,12.20
2017-11-01T04:05:50.777Z,36.77
2017-11-01T04:08:16.987Z,11.80
2017-11-01T04:10:43.261Z,9.17
2017-11-01T04:13:09.576Z,26.27
2017-11-01T04:15:35.801Z,12.57
2017-11-01T04:18:02.444Z,9.70
2017-11-01T04:20:28.666Z,12.90
2017-11-01T04:22:54.900Z,14.43
2017-11-01T04:25:21.157Z,28.47
2017-11-01T04:27:47.413Z,31.23
2017-11-01T04:30:13.654Z,22.00
2017-11-01T04:32:39.920Z,21.63
2017-11-01T04:35:06.144Z,19.87
2017-11-01T04:37:32.367Z,15.17
2017-11-01T04:39:58.659Z,17.87
2017-11-01T04:42:24.883Z,12.60
2017-11-01T04:44:51.223Z,35.37
2017-11-01T04:47:17.636Z,22.23
2017-11-01T04:49:44.203Z,18.73
2017-11-01T04:52:10.622Z,12.67
2017-11-01T04:54:37.057Z,21.17
2017-11-01T04:57:03.284Z,16.80
2017-11-01T04:59:29.507Z,30.90
2017-11-01T05:01:55.788Z,15.73
2017-11-01T05:04:22.013Z,15.17
2017-11-01T05:06:48.252Z,25.03
2017-11-01T05:09:14.565Z,17.67
2017-11-01T05:11:40.805Z,17.47
2017-11-01T05:14:07.041Z,11.17
2017-11-01T05:16:33.340Z,27.33
2017-11-01T05:18:59.576Z,10.53
2017-11-01T05:21:25.802Z,12.23
2017-11-01T05:23:52.135Z,19.93
2017-11-01T05:26:18.407Z,19.07
2017-11-01T05:28:44.653Z,15.07
2017-11-01T05:31:10.912Z,21.33
2017-11-01T05:33:37.125Z,13.93
2017-11-01T05:36:03.350Z,12.57
2017-11-01T05:38:29.634Z,22.43
2017-11-01T05:40:56.129Z,14.93
2017-11-01T05:43:22.370Z,15.27
2017-11-01T05:45:48.725Z,16.47
2017-11-01T05:48:14.948Z,20.50
2017-11-01T05:50:41.177Z,24.87
2017-11-01T05:53:07.444Z,20.57
2017-11-01T05:55:33.697Z,37.33
2017-11-01T05:57:59.923Z,49.03
2017-11-01T06:00:26.198Z,19.77
2017-11-01T06:02:52.444Z,25.53
2017-11-01T06:05:18.685Z,22.10
2017-11-01T06:07:44.963Z,44.17
2017-11-01T06:10:11.183Z,32.60
2017-11-01T06:12:37.410Z,22.60
2017-11-01T06:15:03.711Z,38.40
2017-11-01T06:17:29.972Z,26.87
2017-11-01T06:19:56.224Z,23.37
2017-11-01T06:22:22.501Z,24.13
2017-11-01T06:24:48.745Z,29.00
2017-11-01T06:27:14.971Z,30.00
2017-11-01T06:29:41.257Z,40.57
2017-11-01T06:32:07.510Z,40.33
2017-11-01T06:34:33.777Z,30.77
2017-11-01T06:37:00.057Z,51.70
2017-11-01T06:39:26.292Z,37.93
2017-11-01T06:41:52.528Z,32.00
2017-11-01T06:44:18.816Z,36.43
2017-11-01T06:46:45.045Z,40.10
2017-11-01T06:49:11.278Z,46.87
2017-11-01T06:51:37.556Z,31.70
2017-11-01T06:54:03.794Z,48.80
2017-11-01T06:56:30.040Z,41.83
2017-11-01T06:58:56.306Z,29.23
2017-11-01T07:01:22.535Z,44.40
2017-11-01T07:03:48.865Z,38.57
2017-11-01T07:06:15.146Z,52.67
2017-11-01T07:08:41.399Z,47.53
2017-11-01T07:11:07.639Z,41.33
2017-11-01T07:13:33.920Z,37.23
2017-11-01T07:16:00.166Z,35.53
2017-11-01T07:18:26.416Z,37.00
2017-11-01T07:20:52.687Z,16.67
2017-11-01T07:23:18.920Z,34.27
2017-11-01T07:25:45.152Z,34.03
2017-11-01T07:28:11.424Z,36.40
2017-11-01T07:30:37.636Z,15.07
2017-11-01T07:33:03.860Z,25.40
2017-11-01T07:35:30.135Z,26.27
2017-11-01T07:37:56.385Z,19.70
2017-11-01T07:40:22.688Z,18.20
2017-11-01T07:42:48.960Z,20.13
2017-11-01T07:45:15.183Z,13.67
2017-11-01T07:47:41.424Z,14.50
2017-11-01T07:50:07.698Z,14.37
2017-11-01T07:52:33.914Z,7.30
2017-11-01T07:55:00.152Z,17.27
2017-11-01T07:57:26.429Z,13.93
2017-11-01T07:59:52.672Z,8.90
2017-11-01T08:02:18.919Z,7.47
2017-11-01T08:04:45.200Z,10.93
2017-11-01T08:07:11.444Z,16.50
2017-11-01T08:09:37.674Z,26.60
2017-11-01T08:12:03.977Z,18.33
2017-11-01T08:14:30.206Z,14.47
2017-11-01T08:16:56.435Z,12.40
2017-11-01T08:19:22.713Z,13.53
2017-11-01T08:21:48.931Z,14.30
2017-11-01T08:24:15.170Z,10.43
2017-11-01T08:26:41.456Z,15.77
2017-11-01T08:29:07.691Z,14.17
2017-11-01T08:31:33.926Z,9.17
2017-11-01T08:34:00.208Z,13.73
2017-11-01T08:36:26.441Z,12.13
2017-11-01T08:38:52.658Z,14.03
2017-11-01T08:41:18.911Z,8.07
2017-11-01T08:43:45.129Z,6.07
2017-11-01T08:46:11.353Z,8.60
2017-11-01T08:48:37.627Z,12.53
2017-11-01T08:51:03.945Z,13.30
2017-11-01T08:53:30.195Z,12.67
2017-11-01T08:55:56.453Z,6.53
2017-11-01T08:58:22.828Z,5.67
2017-11-01T09:00:49.055Z,6.23
2017-11-01T09:03:15.319Z,7.80
2017-11-01T09:05:41.564Z,9.40
2017-11-01T09:08:07.796Z,11.63
2017-11-01T09:10:34.089Z,7.70
2017-11-01T09:13:00.410Z,17.03
2017-11-01T09:15:26.647Z,29.67
2017-11-01T09:17:52.914Z,7.90
2017-11-01T09:20:19.292Z,10.90
2017-11-01T09:22:45.536Z,8.97
2017-11-01T09:25:11.794Z,16.33
2017-11-01T09:27:38.026Z,13.27
2017-11-01T09:30:04.267Z,14.27
2017-11-01T09:32:30.556Z,8.37
2017-11-01T09:34:56.782Z,10.00
2017-11-01T09:37:23.007Z,9.27
2017-11-01T09:39:49.291Z,13.43
2017-11-01T09:42:15.538Z,16.50
2017-11-01T09:44:41.770Z,9.27
2017-11-01T09:47:08.051Z,23.13
2017-11-01T09:49:34.292Z,23.97
2017-11-01T09:52:00.530Z,8.20
2017-11-01T09:54:26.911Z,11.63
2017-11-01T09:56:53.152Z,10.73
2017-11-01T09:59:19.418Z,9.93
2017-11-01T10:01:45.725Z,10.80
2017-11-01T10:04:11.954Z,11.73
2017-11-01T10:06:38.174Z,6.47
2017-11-01T10:09:04.450Z,6.77
2017-11-01T10:11:30.698Z,5.60
2017-11-01T10:13:56.946Z,11.50
2017-11-01T10:16:23.233Z,10.47
2017-11-01T10:18:49.490Z,9.73
2017-11-01T10:21:15.725Z,9.37
2017-11-01T10:23:42.000Z,9.20
2017-11-01T10:26:08.241Z,15.93
2017-11-01T10:28:34.472Z,12.13
2017-11-01T10:31:00.756Z,11.67
2017-11-01T10:33:27.002Z,17.67
2017-11-01T10:35:53.224Z,10.37
2017-11-01T10:38:19.530Z,16.90
2017-11-01T10:40:45.766Z,14.60
2017-11-01T10:43:12.000Z,9.13
2017-11-01T10:45:38.268Z,9.70
2017-11-01T10:48:04.624Z,15.23
2017-11-01T10:50:30.943Z,16.53
2017-11-01T10:52:57.240Z,8.70
2017-11-01T10:55:23.518Z,5.60
2017-11-01T10:57:49.760Z,11.50
2017-11-01T11:00:16.034Z,15.63
2017-11-01T11:02:42.267Z,13.27
2017-11-01T11:05:08.577Z,11.77
2017-11-01T11:07:34.974Z,13.10
2017-11-01T11:10:01.232Z,6.70
2017-11-01T11:12:27.449Z,17.97
2017-11-01T11:14:53.707Z,12.03
2017-11-01T11:17:19.937Z,8.37
2017-11-01T11:19:46.148Z,8.70
2017-11-01T11:22:12.424Z,11.93
2017-11-01T11:24:38.787Z,7.87
2017-11-01T11:27:04.993Z,15.00
2017-11-01T11:29:31.265Z,6.90
2017-11-01T11:31:57.484Z,15.60
2017-11-01T11:47:00.244Z,8.93
2017-11-01T11:49:26.479Z,9.87
2017-11-01T11:51:52.730Z,6.30
2017-11-01T11:54:19.007Z,8.03
2017-11-01T11:56:45.252Z,4.30
2017-11-01T11:59:11.476Z,7.93
2017-11-01T12:01:37.733Z,11.60
2017-11-01T12:04:03.970Z,9.53
2017-11-01T12:06:30.187Z,6.77
2017-11-01T12:08:56.447Z,3.63
2017-11-01T12:11:22.676Z,10.10
2017-11-01T12:13:48.920Z,5.47
2017-11-01T12:16:15.186Z,9.53
2017-11-01T12:18:41.425Z,8.80
2017-11-01T12:21:07.656Z,9.70
2017-11-01T12:23:33.937Z,10.83
2017-11-01T12:26:00.175Z,9.83
2017-11-01T12:28:26.439Z,10.90
2017-11-01T12:30:52.716Z,10.83
2017-11-01T12:33:18.934Z,6.00
2017-11-01T12:35:45.172Z,5.63
2017-11-01T12:38:11.527Z,7.07
2017-11-01T12:40:37.945Z,25.67
2017-11-01T12:43:04.175Z,5.97
2017-11-01T12:45:30.447Z,7.00
2017-11-01T12:47:56.668Z,4.37
2017-11-01T12:50:22.891Z,10.17
2017-11-01T12:52:49.447Z,7.97
2017-11-01T12:55:15.880Z,14.50
2017-11-01T13:00:18.445Z,14.77
2017-11-01T13:02:45.270Z,9.20
2017-11-01T13:05:11.666Z,12.43
2017-11-01T13:07:37.909Z,33.37
2017-11-01T13:10:04.312Z,7.30
2017-11-01T13:12:30.747Z,17.30
2017-11-01T13:14:57.236Z,9.00
2017-11-01T13:17:23.799Z,10.40
2017-11-01T13:19:50.192Z,7.50
2017-11-01T13:22:16.885Z,7.00
2017-11-01T13:24:43.376Z,13.33
2017-11-01T13:27:09.760Z,4.70
2017-11-01T13:29:36.391Z,11.07
2017-11-01T13:32:02.876Z,8.87
2017-11-01T13:34:29.257Z,5.37
2017-11-01T13:36:55.537Z,12.20
2017-11-01T13:39:22.103Z,22.53
2017-11-01T13:41:48.525Z,8.73
2017-11-01T13:44:15.020Z,4.60
2017-11-01T13:46:41.604Z,10.90
2017-11-01T13:49:07.858Z,6.90
2017-11-01T13:51:34.339Z,5.70
2017-11-01T13:54:00.732Z,11.53
2017-11-01T13:56:26.964Z,5.40
2017-11-01T13:58:53.569Z,10.00
2017-11-01T14:01:19.823Z,18.80
2017-11-01T14:03:46.448Z,26.93
2017-11-01T14:06:13.099Z,19.23
2017-11-01T14:08:39.504Z,18.13
2017-11-01T14:11:05.738Z,15.57
2017-11-01T14:13:32.296Z,17.97
2017-11-01T14:15:58.731Z,8.90
2017-11-01T14:18:25.367Z,11.10
2017-11-01T14:20:51.808Z,18.23
2017-11-01T14:23:18.035Z,11.90
2017-11-01T14:25:44.654Z,13.33
2017-11-01T14:28:11.167Z,16.50
2017-11-01T14:30:37.537Z,14.63
2017-11-01T14:33:04.149Z,17.07
2017-11-01T14:35:30.614Z,18.13
2017-11-01T14:37:57.112Z,66.17
2017-11-01T14:40:23.472Z,38.10
2017-11-01T14:42:49.894Z,18.43
2017-11-01T14:45:16.114Z,31.03
2017-11-01T14:47:42.424Z,35.20
2017-11-01T14:50:08.868Z,29.63
2017-11-01T14:52:35.386Z,29.93
2017-11-01T14:55:01.725Z,45.67
2017-11-01T14:57:28.094Z,47.47
2017-11-01T14:59:54.587Z,40.20
2017-11-01T15:02:21.031Z,38.07
2017-11-01T15:04:47.569Z,31.70
2017-11-01T15:07:13.836Z,28.13
2017-11-01T15:09:40.059Z,39.43
2017-11-01T15:12:06.541Z,23.60
2017-11-01T15:14:33.118Z,37.03
2017-11-01T15:16:59.553Z,38.43
2017-11-01T15:19:26.011Z,28.80
2017-11-01T15:21:52.488Z,27.47
2017-11-01T15:24:18.866Z,42.07
2017-11-01T15:26:45.345Z,36.50
2017-11-01T15:29:11.735Z,35.43
2017-11-01T15:31:38.357Z,41.87
2017-11-01T15:34:04.818Z,40.20
2017-11-01T15:36:31.287Z,35.90
2017-11-01T15:38:57.672Z,34.33
2017-11-01T15:41:24.173Z,49.57
2017-11-01T15:43:50.538Z,38.13
2017-11-01T15:46:17.034Z,40.67
2017-11-01T15:48:43.302Z,31.90
2017-11-01T15:51:09.691Z,27.33
2017-11-01T15:53:36.136Z,34.40
2017-11-01T15:56:02.548Z,36.70
2017-11-01T15:58:28.989Z,31.90
2017-11-01T16:00:55.432Z,39.77
2017-11-01T16:03:21.829Z,43.33
2017-11-01T16:05:48.415Z,44.63
2017-11-01T16:08:14.668Z,40.63
2017-11-01T16:10:41.296Z,24.63
2017-11-01T16:13:07.739Z,38.87
2017-11-01T16:15:34.358Z,25.50
2017-11-01T16:18:00.808Z,35.37
2017-11-01T16:20:27.450Z,32.03
2017-11-01T16:22:53.882Z,54.53
2017-11-01T16:25:20.501Z,33.97
2017-11-01T16:27:46.756Z,50.40
2017-11-01T16:30:13.357Z,37.13
2017-11-01T16:32:40.025Z,25.60
2017-11-01T16:35:06.643Z,38.57
2017-11-01T16:37:33.297Z,19.63
2017-11-01T16:39:59.600Z,20.30
2017-11-01T16:42:26.018Z,23.40
2017-11-01T16:44:52.460Z,39.57
2017-11-01T16:47:19.001Z,36.87
2017-11-01T16:49:45.417Z,23.80
2017-11-01T16:52:11.889Z,18.93
2017-11-01T16:54:38.542Z,36.13
2017-11-01T16:57:05.184Z,28.80
2017-11-01T16:59:31.411Z,40.70
2017-11-01T17:01:57.671Z,22.47
2017-11-01T17:04:23.907Z,55.80
2017-11-01T17:06:50.138Z,26.70
2017-11-01T17:09:16.723Z,23.10
2017-11-01T17:11:43.374Z,62.97
2017-11-01T17:14:10.009Z,79.37
2017-11-01T17:16:36.626Z,24.17
2017-11-01T17:19:03.285Z,54.33
2017-11-01T17:21:29.635Z,128.73
2017-11-01T17:23:55.972Z,74.17
2017-11-01T17:26:22.341Z,104.17
2017-11-01T17:28:48.602Z,66.03
2017-11-01T17:31:14.837Z,65.40
2017-11-01T17:33:41.346Z,84.40
2017-11-01T17:36:07.714Z,53.40
2017-11-01T17:38:34.328Z,51.07
2017-11-01T17:41:00.720Z,93.63
2017-11-01T17:43:26.941Z,64.93
2017-11-01T17:45:53.540Z,103.03
2017-11-01T17:48:19.980Z,91.00
2017-11-01T17:50:46.590Z,77.00
2017-11-01T17:53:12.812Z,61.10
2017-11-01T17:55:39.109Z,56.03
2017-11-01T17:58:05.333Z,64.13
2017-11-01T18:00:31.574Z,44.00
2017-11-01T18:02:57.830Z,61.80
2017-11-01T18:05:24.047Z,46.60
2017-11-01T18:07:50.404Z,51.13
2017-11-01T18:10:16.704Z,55.57
2017-11-01T18:12:42.933Z,34.37
2017-11-01T18:15:09.148Z,38.33
2017-11-01T18:17:35.391Z,45.50
2017-11-01T18:20:01.616Z,26.93
2017-11-01T18:22:27.993Z,24.10
2017-11-01T18:24:54.619Z,40.73
2017-11-01T18:27:20.833Z,42.40
2017-11-01T18:29:47.063Z,36.13
2017-11-01T18:32:13.328Z,28.50
2017-11-01T18:34:39.557Z,27.63
2017-11-01T18:37:05.778Z,32.97
2017-11-01T18:39:32.393Z,29.63
2017-11-01T18:41:58.612Z,31.30
2017-11-01T18:44:24.838Z,29.90
2017-11-01T18:46:51.115Z,37.33
2017-11-01T18:49:17.322Z,31.37
2017-11-01T18:51:43.561Z,47.97
2017-11-01T18:54:09.828Z,54.67
2017-11-01T18:56:36.061Z,47.53
2017-11-01T18:59:02.292Z,56.70
2017-11-01T19:01:28.870Z,41.90
2017-11-01T19:03:55.260Z,35.17
2017-11-01T19:06:21.705Z,34.53
2017-11-01T19:08:48.374Z,31.33
2017-11-01T19:11:14.787Z,27.57
2017-11-01T19:13:41.000Z,42.03
2017-11-01T19:16:07.283Z,37.60
2017-11-01T19:18:33.563Z,30.17
2017-11-01T19:20:59.979Z,40.77
2017-11-01T19:23:26.227Z,39.53
2017-11-01T19:25:52.787Z,48.77
2017-11-01T19:28:19.032Z,29.57
2017-11-01T19:30:45.640Z,38.10
2017-11-01T19:33:12.311Z,42.33
2017-11-01T19:35:38.603Z,43.37
2017-11-01T19:38:05.791Z,39.70
2017-11-01T19:40:32.012Z,28.80
2017-11-01T19:42:58.424Z,58.60
2017-11-01T19:45:24.683Z,33.10
2017-11-01T19:47:50.911Z,30.60
2017-11-01T19:50:17.328Z,36.77
2017-11-01T19:52:43.604Z,36.63
2017-11-01T19:55:09.830Z,34.57
2017-11-01T19:57:36.313Z,37.70
2017-11-01T20:00:02.705Z,29.27
2017-11-01T20:02:28.934Z,47.13
2017-11-01T20:04:55.333Z,35.80
2017-11-01T20:07:21.972Z,32.90
2017-11-01T20:09:48.587Z,39.30
2017-11-01T20:12:15.029Z,33.67
2017-11-01T20:14:41.682Z,36.87
2017-11-01T20:17:08.151Z,28.33
2017-11-01T20:19:34.429Z,35.30
2017-11-01T20:22:00.750Z,37.20
2017-11-01T20:24:26.994Z,34.87
2017-11-01T20:26:53.232Z,34.13
2017-11-01T20:29:19.727Z,30.30
2017-11-01T20:31:45.969Z,32.60
2017-11-01T20:34:12.191Z,37.57
2017-11-01T20:36:38.464Z,36.65
2017-11-01T20:39:04.996Z,32.73
2017-11-01T20:41:31.630Z,35.37
2017-11-01T20:43:57.916Z,38.85
2017-11-01T20:46:24.363Z,43.80
2017-11-01T20:48:50.724Z,49.67
2017-11-01T20:51:17.365Z,35.95
2017-11-01T20:53:43.614Z,49.05
2017-11-01T20:56:10.099Z,40.35
2017-11-01T20:58:36.620Z,53.78
2017-11-01T21:01:02.864Z,42.17
2017-11-01T21:03:29.130Z,37.97
2017-11-01T21:05:55.760Z,46.50
2017-11-01T21:08:22.407Z,35.53
2017-11-01T21:10:48.646Z,36.40
2017-11-01T21:13:14.920Z,41.45
2017-11-01T21:15:41.338Z,35.88
2017-11-01T21:18:07.880Z,42.58
2017-11-01T21:20:34.321Z,34.67
2017-11-01T21:23:00.794Z,33.10
2017-11-01T21:25:27.033Z,40.85
2017-11-01T21:27:53.456Z,38.90
2017-11-01T21:30:19.988Z,39.93
2017-11-01T21:32:46.478Z,34.43
2017-11-01T21:35:13.022Z,27.83
2017-11-01T21:37:39.364Z,26.93
2017-11-01T21:40:05.724Z,41.20
2017-11-01T21:42:32.360Z,36.47
2017-11-01T21:44:58.861Z,36.90
2017-11-01T21:47:25.280Z,45.05
2017-11-01T21:49:51.822Z,36.25
2017-11-01T21:52:18.268Z,30.85
2017-11-01T21:54:44.681Z,35.35
2017-11-01T21:57:11.156Z,39.20
2017-11-01T21:59:37.804Z,36.25
2017-11-01T22:02:04.428Z,33.53
2017-11-01T22:04:30.847Z,32.00
2017-11-01T22:06:57.122Z,32.10
2017-11-01T22:09:23.743Z,39.17
2017-11-01T22:11:50.004Z,33.03
2017-11-01T22:14:16.236Z,40.47
2017-11-01T22:16:42.700Z,31.67
2017-11-01T22:19:08.983Z,35.42
2017-11-01T22:21:35.211Z,34.75
2017-11-01T22:24:01.580Z,37.55
2017-11-01T22:26:28.121Z,30.67
2017-11-01T22:28:54.594Z,34.65
2017-11-01T22:31:20.980Z,28.67
2017-11-01T22:33:47.668Z,31.73
2017-11-01T22:36:14.088Z,30.17
2017-11-01T22:38:40.499Z,29.73
2017-11-01T22:41:06.969Z,36.72
2017-11-01T22:43:33.192Z,33.57
2017-11-01T22:45:59.427Z,35.33
2017-11-01T22:48:25.700Z,31.05
2017-11-01T22:50:52.093Z,36.33
2017-11-01T22:53:18.476Z,28.38
2017-11-01T22:55:45.141Z,28.02
2017-11-01T22:58:11.562Z,32.20
2017-11-01T23:00:37.808Z,29.05
2017-11-01T23:03:04.458Z,30.20
2017-11-01T23:05:31.063Z,31.45
2017-11-01T23:07:57.529Z,32.05
2017-11-01T23:10:23.813Z,29.15
2017-11-01T23:12:50.386Z,30.08
2017-11-01T23:15:16.627Z,33.00
2017-11-01T23:17:43.243Z,37.03
2017-11-01T23:20:09.483Z,34.45
2017-11-01T23:22:35.722Z,39.83
2017-11-01T23:25:01.980Z,28.25
2017-11-01T23:27:28.383Z,32.50
2017-11-01T23:29:55.010Z,31.60
2017-11-01T23:32:21.263Z,36.63
2017-11-01T23:34:47.501Z,34.25
2017-11-01T23:37:13.905Z,33.08
2017-11-01T23:39:40.349Z,27.42
2017-11-01T23:42:06.984Z,37.03
2017-11-01T23:44:33.211Z,38.60
2017-11-01T23:46:59.847Z,35.10
2017-11-01T23:49:26.520Z,36.65
2017-11-01T23:51:52.979Z,32.67
2017-11-01T23:54:19.413Z,34.10
2017-11-01T23:56:45.834Z,42.67
2017-11-01T23:59:12.283Z,42.20
